sensor_id;sensor_type;location;lat;lon;timestamp;pressure;altitude;pressure_sealevel;temperature;humidity
64521;BME280;50896;46.714;17.322;2023-05-09T00:00:55;101228.06;;;11.70;63.86
64521;BME280;50896;46.714;17.322;2023-05-09T00:03:22;101228.34;;;11.67;63.45
64521;BME280;50896;46.714;17.322;2023-05-09T00:05:49;101236.56;;;11.73;63.36
64521;BME280;50896;46.714;17.322;2023-05-09T00:08:16;101206.16;;;11.48;63.64
64521;BME280;50896;46.714;17.322;2023-05-09T00:10:43;101221.56;;;11.54;63.81
64521;BME280;50896;46.714;17.322;2023-05-09T00:13:10;101219.25;;;11.59;63.75
64521;BME280;50896;46.714;17.322;2023-05-09T00:15:37;101211.00;;;11.62;63.44
64521;BME280;50896;46.714;17.322;2023-05-09T00:18:04;101210.84;;;11.64;63.39
64521;BME280;50896;46.714;17.322;2023-05-09T00:20:31;101195.09;;;11.53;63.54
64521;BME280;50896;46.714;17.322;2023-05-09T00:22:59;101207.28;;;11.45;64.56
64521;BME280;50896;46.714;17.322;2023-05-09T00:25:26;101211.63;;;11.46;64.84
64521;BME280;50896;46.714;17.322;2023-05-09T00:27:53;101212.19;;;11.50;64.92
64521;BME280;50896;46.714;17.322;2023-05-09T00:30:20;101209.13;;;11.45;64.84
64521;BME280;50896;46.714;17.322;2023-05-09T00:32:46;101212.75;;;11.44;64.93
64521;BME280;50896;46.714;17.322;2023-05-09T00:35:13;101210.00;;;11.36;64.51
64521;BME280;50896;46.714;17.322;2023-05-09T00:37:41;101209.47;;;11.32;65.32
64521;BME280;50896;46.714;17.322;2023-05-09T00:40:08;101205.84;;;11.33;64.95
64521;BME280;50896;46.714;17.322;2023-05-09T00:42:35;101211.22;;;11.23;65.34
64521;BME280;50896;46.714;17.322;2023-05-09T00:45:02;101202.22;;;11.24;64.91
64521;BME280;50896;46.714;17.322;2023-05-09T00:47:29;101209.38;;;11.24;64.84
64521;BME280;50896;46.714;17.322;2023-05-09T00:49:56;101199.56;;;11.24;64.41
64521;BME280;50896;46.714;17.322;2023-05-09T00:52:24;101207.31;;;11.18;64.52
64521;BME280;50896;46.714;17.322;2023-05-09T00:54:52;101195.41;;;11.12;64.19
64521;BME280;50896;46.714;17.322;2023-05-09T00:57:19;101209.41;;;11.14;64.10
64521;BME280;50896;46.714;17.322;2023-05-09T00:59:47;101197.09;;;11.13;64.05
64521;BME280;50896;46.714;17.322;2023-05-09T01:02:17;101198.66;;;11.06;63.99
64521;BME280;50896;46.714;17.322;2023-05-09T01:04:44;101203.78;;;11.17;63.89
64521;BME280;50896;46.714;17.322;2023-05-09T01:07:37;101199.75;;;11.13;64.13
64521;BME280;50896;46.714;17.322;2023-05-09T01:10:30;101188.88;;;10.97;64.01
64521;BME280;50896;46.714;17.322;2023-05-09T01:15:36;101200.66;;;11.04;63.69
64521;BME280;50896;46.714;17.322;2023-05-09T01:20:44;101189.34;;;10.92;63.38
64521;BME280;50896;46.714;17.322;2023-05-09T01:26:25;101197.16;;;10.93;64.01
64521;BME280;50896;46.714;17.322;2023-05-09T01:29:19;101199.53;;;10.97;63.81
64521;BME280;50896;46.714;17.322;2023-05-09T01:31:49;101203.06;;;10.87;63.63
64521;BME280;50896;46.714;17.322;2023-05-09T01:34:17;101200.41;;;10.87;63.24
64521;BME280;50896;46.714;17.322;2023-05-09T01:36:49;101189.38;;;10.82;63.77
64521;BME280;50896;46.714;17.322;2023-05-09T01:39:17;101201.44;;;10.76;63.95
64521;BME280;50896;46.714;17.322;2023-05-09T01:41:45;101197.78;;;10.77;63.47
64521;BME280;50896;46.714;17.322;2023-05-09T01:44:14;101186.31;;;10.67;63.80
64521;BME280;50896;46.714;17.322;2023-05-09T01:46:42;101200.47;;;10.68;63.48
64521;BME280;50896;46.714;17.322;2023-05-09T01:49:10;101199.34;;;10.70;63.68
64521;BME280;50896;46.714;17.322;2023-05-09T01:51:37;101188.44;;;10.64;63.58
64521;BME280;50896;46.714;17.322;2023-05-09T01:54:09;101196.13;;;10.67;64.10
64521;BME280;50896;46.714;17.322;2023-05-09T01:56:36;101194.88;;;10.61;64.27
64521;BME280;50896;46.714;17.322;2023-05-09T01:59:06;101195.16;;;10.68;63.57
64521;BME280;50896;46.714;17.322;2023-05-09T02:01:33;101199.75;;;10.75;64.02
64521;BME280;50896;46.714;17.322;2023-05-09T02:04:02;101197.63;;;10.79;63.71
64521;BME280;50896;46.714;17.322;2023-05-09T02:06:30;101197.38;;;10.72;64.12
64521;BME280;50896;46.714;17.322;2023-05-09T02:08:58;101200.84;;;10.73;64.11
64521;BME280;50896;46.714;17.322;2023-05-09T02:11:25;101202.00;;;10.70;64.46
64521;BME280;50896;46.714;17.322;2023-05-09T02:13:52;101194.44;;;10.66;63.87
64521;BME280;50896;46.714;17.322;2023-05-09T02:16:18;101189.13;;;10.66;64.25
64521;BME280;50896;46.714;17.322;2023-05-09T02:18:46;101201.31;;;10.68;64.25
64521;BME280;50896;46.714;17.322;2023-05-09T02:21:14;101189.28;;;10.64;63.97
64521;BME280;50896;46.714;17.322;2023-05-09T02:23:41;101188.03;;;10.58;64.29
64521;BME280;50896;46.714;17.322;2023-05-09T02:26:08;101183.84;;;10.56;65.29
64521;BME280;50896;46.714;17.322;2023-05-09T02:28:35;101183.16;;;10.54;65.92
64521;BME280;50896;46.714;17.322;2023-05-09T02:31:04;101185.22;;;10.60;65.67
64521;BME280;50896;46.714;17.322;2023-05-09T02:33:36;101164.13;;;10.39;66.61
64521;BME280;50896;46.714;17.322;2023-05-09T02:36:04;101171.00;;;10.41;66.36
64521;BME280;50896;46.714;17.322;2023-05-09T02:38:32;101178.25;;;10.39;67.04
64521;BME280;50896;46.714;17.322;2023-05-09T02:41:00;101179.94;;;10.31;67.63
64521;BME280;50896;46.714;17.322;2023-05-09T02:43:27;101177.44;;;10.39;67.50
64521;BME280;50896;46.714;17.322;2023-05-09T02:45:54;101168.19;;;10.23;68.11
64521;BME280;50896;46.714;17.322;2023-05-09T02:48:21;101178.13;;;10.31;67.84
64521;BME280;50896;46.714;17.322;2023-05-09T02:50:48;101178.41;;;10.18;68.18
64521;BME280;50896;46.714;17.322;2023-05-09T02:53:14;101179.13;;;10.11;68.41
64521;BME280;50896;46.714;17.322;2023-05-09T02:55:41;101191.41;;;10.12;69.02
64521;BME280;50896;46.714;17.322;2023-05-09T02:58:08;101183.44;;;10.12;69.04
64521;BME280;50896;46.714;17.322;2023-05-09T03:00:41;101164.44;;;10.06;70.09
64521;BME280;50896;46.714;17.322;2023-05-09T03:03:10;101174.47;;;10.03;70.43
64521;BME280;50896;46.714;17.322;2023-05-09T03:05:37;101181.78;;;10.01;70.35
64521;BME280;50896;46.714;17.322;2023-05-09T03:08:04;101186.09;;;10.02;69.88
64521;BME280;50896;46.714;17.322;2023-05-09T03:10:32;101176.59;;;10.09;69.42
64521;BME280;50896;46.714;17.322;2023-05-09T03:12:59;101175.06;;;10.06;69.41
64521;BME280;50896;46.714;17.322;2023-05-09T03:15:26;101173.38;;;9.96;69.45
64521;BME280;50896;46.714;17.322;2023-05-09T03:17:53;101171.00;;;9.92;69.91
64521;BME280;50896;46.714;17.322;2023-05-09T03:20:21;101173.66;;;9.92;70.16
64521;BME280;50896;46.714;17.322;2023-05-09T03:22:48;101168.34;;;9.83;70.54
64521;BME280;50896;46.714;17.322;2023-05-09T03:25:15;101169.31;;;9.82;70.49
64521;BME280;50896;46.714;17.322;2023-05-09T03:27:43;101165.25;;;9.87;70.27
64521;BME280;50896;46.714;17.322;2023-05-09T03:30:13;101177.28;;;9.91;70.38
64521;BME280;50896;46.714;17.322;2023-05-09T03:32:41;101177.72;;;9.87;70.14
64521;BME280;50896;46.714;17.322;2023-05-09T03:35:08;101175.59;;;9.90;69.29
64521;BME280;50896;46.714;17.322;2023-05-09T03:37:36;101176.47;;;9.91;69.26
64521;BME280;50896;46.714;17.322;2023-05-09T03:40:05;101170.84;;;9.84;69.31
64521;BME280;50896;46.714;17.322;2023-05-09T03:42:38;101177.28;;;9.91;69.17
64521;BME280;50896;46.714;17.322;2023-05-09T03:45:06;101167.38;;;9.94;69.40
64521;BME280;50896;46.714;17.322;2023-05-09T03:47:33;101180.22;;;9.98;69.59
64521;BME280;50896;46.714;17.322;2023-05-09T03:50:00;101182.59;;;10.01;69.76
64521;BME280;50896;46.714;17.322;2023-05-09T03:52:27;101176.59;;;10.09;69.40
64521;BME280;50896;46.714;17.322;2023-05-09T03:54:54;101171.97;;;10.01;69.34
64521;BME280;50896;46.714;17.322;2023-05-09T03:57:21;101179.94;;;10.11;69.09
64521;BME280;50896;46.714;17.322;2023-05-09T03:59:50;101177.41;;;10.19;68.57
64521;BME280;50896;46.714;17.322;2023-05-09T04:02:17;101178.13;;;10.21;68.65
64521;BME280;50896;46.714;17.322;2023-05-09T04:04:45;101191.41;;;10.21;67.88
64521;BME280;50896;46.714;17.322;2023-05-09T04:07:15;101193.50;;;10.27;67.99
64521;BME280;50896;46.714;17.322;2023-05-09T04:09:42;101192.94;;;10.24;67.68
64521;BME280;50896;46.714;17.322;2023-05-09T04:12:09;101166.94;;;10.18;67.31
64521;BME280;50896;46.714;17.322;2023-05-09T04:14:38;101186.09;;;10.31;66.91
64521;BME280;50896;46.714;17.322;2023-05-09T04:17:05;101191.97;;;10.35;67.69
64521;BME280;50896;46.714;17.322;2023-05-09T04:19:32;101198.25;;;10.43;67.62
64521;BME280;50896;46.714;17.322;2023-05-09T04:21:59;101198.69;;;10.49;66.71
64521;BME280;50896;46.714;17.322;2023-05-09T04:24:25;101202.16;;;10.49;66.95
64521;BME280;50896;46.714;17.322;2023-05-09T04:26:52;101190.41;;;10.52;67.55
64521;BME280;50896;46.714;17.322;2023-05-09T04:29:22;101193.19;;;10.60;66.81
64521;BME280;50896;46.714;17.322;2023-05-09T04:31:52;101190.16;;;10.55;66.42
64521;BME280;50896;46.714;17.322;2023-05-09T04:34:22;101201.59;;;10.65;66.74
64521;BME280;50896;46.714;17.322;2023-05-09T04:36:50;101202.13;;;10.69;66.54
64521;BME280;50896;46.714;17.322;2023-05-09T04:39:18;101207.00;;;10.83;65.90
64521;BME280;50896;46.714;17.322;2023-05-09T04:41:54;101209.94;;;10.90;66.16
64521;BME280;50896;46.714;17.322;2023-05-09T04:44:21;101204.03;;;10.96;65.23
64521;BME280;50896;46.714;17.322;2023-05-09T04:46:49;101208.91;;;11.01;65.98
64521;BME280;50896;46.714;17.322;2023-05-09T04:49:16;101209.59;;;11.03;64.96
64521;BME280;50896;46.714;17.322;2023-05-09T04:51:43;101206.19;;;11.10;65.69
64521;BME280;50896;46.714;17.322;2023-05-09T04:54:10;101206.47;;;11.17;63.75
64521;BME280;50896;46.714;17.322;2023-05-09T04:56:39;101195.81;;;11.17;63.90
64521;BME280;50896;46.714;17.322;2023-05-09T04:59:06;101201.84;;;11.19;64.95
64521;BME280;50896;46.714;17.322;2023-05-09T05:01:33;101205.59;;;11.26;63.77
64521;BME280;50896;46.714;17.322;2023-05-09T05:04:00;101199.66;;;11.33;64.03
64521;BME280;50896;46.714;17.322;2023-05-09T05:06:29;101201.97;;;11.45;63.98
64521;BME280;50896;46.714;17.322;2023-05-09T05:08:58;101205.19;;;11.49;65.32
64521;BME280;50896;46.714;17.322;2023-05-09T05:11:24;101203.28;;;11.59;64.38
64521;BME280;50896;46.714;17.322;2023-05-09T05:13:52;101204.81;;;11.62;63.36
64521;BME280;50896;46.714;17.322;2023-05-09T05:16:19;101201.03;;;11.65;62.92
64521;BME280;50896;46.714;17.322;2023-05-09T05:18:46;101199.34;;;11.63;62.61
64521;BME280;50896;46.714;17.322;2023-05-09T05:21:13;101213.97;;;11.77;62.31
64521;BME280;50896;46.714;17.322;2023-05-09T05:23:42;101204.22;;;11.68;61.39
64521;BME280;50896;46.714;17.322;2023-05-09T05:26:09;101215.41;;;11.72;62.05
64521;BME280;50896;46.714;17.322;2023-05-09T05:28:36;101207.34;;;11.82;61.91
64521;BME280;50896;46.714;17.322;2023-05-09T05:31:04;101209.75;;;11.85;62.82
64521;BME280;50896;46.714;17.322;2023-05-09T05:33:31;101214.06;;;11.86;63.02
64521;BME280;50896;46.714;17.322;2023-05-09T05:35:58;101203.41;;;11.86;62.90
64521;BME280;50896;46.714;17.322;2023-05-09T05:38:25;101204.94;;;11.88;62.07
64521;BME280;50896;46.714;17.322;2023-05-09T05:40:55;101210.91;;;12.00;61.76
64521;BME280;50896;46.714;17.322;2023-05-09T05:43:23;101207.31;;;12.09;61.35
64521;BME280;50896;46.714;17.322;2023-05-09T05:45:50;101205.03;;;12.14;61.82
64521;BME280;50896;46.714;17.322;2023-05-09T05:48:21;101215.69;;;12.14;62.26
64521;BME280;50896;46.714;17.322;2023-05-09T05:50:48;101211.66;;;12.10;62.01
64521;BME280;50896;46.714;17.322;2023-05-09T05:53:18;101205.72;;;12.17;62.74
64521;BME280;50896;46.714;17.322;2023-05-09T05:55:45;101210.44;;;12.23;63.02
64521;BME280;50896;46.714;17.322;2023-05-09T05:58:12;101204.81;;;12.26;62.35
64521;BME280;50896;46.714;17.322;2023-05-09T06:00:39;101207.22;;;12.37;63.37
64521;BME280;50896;46.714;17.322;2023-05-09T06:03:07;101207.06;;;12.39;62.60
64521;BME280;50896;46.714;17.322;2023-05-09T06:05:42;101207.38;;;12.36;62.56
64521;BME280;50896;46.714;17.322;2023-05-09T06:08:10;101204.69;;;12.54;63.10
64521;BME280;50896;46.714;17.322;2023-05-09T06:10:37;101208.50;;;12.51;63.06
64521;BME280;50896;46.714;17.322;2023-05-09T06:13:04;101203.53;;;12.56;65.12
64521;BME280;50896;46.714;17.322;2023-05-09T06:15:33;101197.25;;;12.65;63.34
64521;BME280;50896;46.714;17.322;2023-05-09T06:18:04;101194.56;;;12.65;62.47
64521;BME280;50896;46.714;17.322;2023-05-09T06:20:31;101200.44;;;12.69;63.02
64521;BME280;50896;46.714;17.322;2023-05-09T06:23:00;101195.16;;;12.77;62.28
64521;BME280;50896;46.714;17.322;2023-05-09T06:25:29;101190.88;;;12.85;61.38
64521;BME280;50896;46.714;17.322;2023-05-09T06:27:56;101190.66;;;12.78;61.40
64521;BME280;50896;46.714;17.322;2023-05-09T06:30:22;101181.81;;;12.77;61.43
64521;BME280;50896;46.714;17.322;2023-05-09T06:32:53;101190.03;;;12.84;62.32
64521;BME280;50896;46.714;17.322;2023-05-09T06:35:20;101187.91;;;12.96;60.21
64521;BME280;50896;46.714;17.322;2023-05-09T06:37:46;101183.94;;;13.00;60.47
64521;BME280;50896;46.714;17.322;2023-05-09T06:40:15;101168.91;;;12.91;59.94
64521;BME280;50896;46.714;17.322;2023-05-09T06:42:42;101168.38;;;12.87;60.97
64521;BME280;50896;46.714;17.322;2023-05-09T06:45:09;101171.69;;;12.89;59.62
64521;BME280;50896;46.714;17.322;2023-05-09T06:47:36;101174.75;;;12.94;59.97
64521;BME280;50896;46.714;17.322;2023-05-09T06:50:03;101159.13;;;13.08;60.59
64521;BME280;50896;46.714;17.322;2023-05-09T06:52:30;101167.81;;;13.10;60.88
64521;BME280;50896;46.714;17.322;2023-05-09T06:54:57;101170.84;;;13.15;59.97
64521;BME280;50896;46.714;17.322;2023-05-09T06:57:24;101178.03;;;13.23;60.65
64521;BME280;50896;46.714;17.322;2023-05-09T06:59:51;101175.53;;;13.21;60.34
64521;BME280;50896;46.714;17.322;2023-05-09T07:02:18;101174.91;;;13.27;60.99
64521;BME280;50896;46.714;17.322;2023-05-09T07:04:45;101168.56;;;13.28;61.30
64521;BME280;50896;46.714;17.322;2023-05-09T07:07:12;101173.09;;;13.36;60.47
64521;BME280;50896;46.714;17.322;2023-05-09T07:09:38;101166.94;;;13.36;60.95
64521;BME280;50896;46.714;17.322;2023-05-09T07:12:05;101163.44;;;13.43;60.09
64521;BME280;50896;46.714;17.322;2023-05-09T07:14:32;101160.28;;;13.40;58.54
64521;BME280;50896;46.714;17.322;2023-05-09T07:16:59;101158.28;;;13.50;60.13
64521;BME280;50896;46.714;17.322;2023-05-09T07:19:46;101149.28;;;13.51;59.88
64521;BME280;50896;46.714;17.322;2023-05-09T07:22:12;101157.97;;;13.53;59.66
64521;BME280;50896;46.714;17.322;2023-05-09T07:24:39;101150.63;;;13.55;60.57
64521;BME280;50896;46.714;17.322;2023-05-09T07:27:06;101152.13;;;13.66;60.77
64521;BME280;50896;46.714;17.322;2023-05-09T07:29:33;101144.47;;;13.71;62.59
64521;BME280;50896;46.714;17.322;2023-05-09T07:32:00;101139.63;;;13.58;61.95
64521;BME280;50896;46.714;17.322;2023-05-09T07:34:27;101141.78;;;13.71;61.30
64521;BME280;50896;46.714;17.322;2023-05-09T07:36:54;101143.28;;;13.65;60.53
64521;BME280;50896;46.714;17.322;2023-05-09T07:39:20;101130.44;;;13.61;60.56
64521;BME280;50896;46.714;17.322;2023-05-09T07:41:47;101128.88;;;13.42;61.73
64521;BME280;50896;46.714;17.322;2023-05-09T07:44:14;101127.31;;;13.31;61.93
64521;BME280;50896;46.714;17.322;2023-05-09T07:46:41;101136.25;;;13.40;61.41
64521;BME280;50896;46.714;17.322;2023-05-09T07:49:08;101133.09;;;13.61;62.34
64521;BME280;50896;46.714;17.322;2023-05-09T07:51:35;101116.94;;;13.71;62.43
64521;BME280;50896;46.714;17.322;2023-05-09T07:54:02;101128.63;;;13.78;62.65
64521;BME280;50896;46.714;17.322;2023-05-09T07:56:29;101126.28;;;13.83;61.74
64521;BME280;50896;46.714;17.322;2023-05-09T07:58:55;101129.44;;;13.95;61.51
64521;BME280;50896;46.714;17.322;2023-05-09T08:01:22;101119.28;;;13.98;61.23
64521;BME280;50896;46.714;17.322;2023-05-09T08:03:49;101116.75;;;13.80;61.04
64521;BME280;50896;46.714;17.322;2023-05-09T08:06:16;101121.59;;;13.93;62.49
64521;BME280;50896;46.714;17.322;2023-05-09T08:08:43;101119.09;;;13.83;62.84
64521;BME280;50896;46.714;17.322;2023-05-09T08:11:10;101102.88;;;13.77;62.70
64521;BME280;50896;46.714;17.322;2023-05-09T08:13:36;101108.56;;;13.82;62.00
64521;BME280;50896;46.714;17.322;2023-05-09T08:16:03;101116.25;;;13.77;62.59
64521;BME280;50896;46.714;17.322;2023-05-09T08:18:31;101108.41;;;13.92;62.55
64521;BME280;50896;46.714;17.322;2023-05-09T08:20:58;101108.22;;;13.77;62.48
64521;BME280;50896;46.714;17.322;2023-05-09T08:23:25;101111.25;;;13.74;64.18
64521;BME280;50896;46.714;17.322;2023-05-09T08:25:53;101109.56;;;13.64;63.29
64521;BME280;50896;46.714;17.322;2023-05-09T08:28:20;101108.06;;;13.78;64.76
64521;BME280;50896;46.714;17.322;2023-05-09T08:30:50;101115.44;;;13.84;64.28
64521;BME280;50896;46.714;17.322;2023-05-09T08:33:17;101110.91;;;13.77;64.98
64521;BME280;50896;46.714;17.322;2023-05-09T08:35:44;101115.25;;;13.86;64.51
64521;BME280;50896;46.714;17.322;2023-05-09T08:38:11;101115.91;;;13.88;63.60
64521;BME280;50896;46.714;17.322;2023-05-09T08:40:39;101126.13;;;13.93;64.06
64521;BME280;50896;46.714;17.322;2023-05-09T08:43:07;101123.63;;;13.91;65.80
64521;BME280;50896;46.714;17.322;2023-05-09T08:45:45;101125.78;;;13.96;67.67
64521;BME280;50896;46.714;17.322;2023-05-09T08:48:15;101109.22;;;13.92;66.47
64521;BME280;50896;46.714;17.322;2023-05-09T08:50:43;101119.44;;;13.97;67.26
64521;BME280;50896;46.714;17.322;2023-05-09T08:53:10;101105.56;;;14.01;68.15
64521;BME280;50896;46.714;17.322;2023-05-09T08:55:38;101112.06;;;14.07;67.03
64521;BME280;50896;46.714;17.322;2023-05-09T08:58:05;101098.00;;;14.22;66.52
64521;BME280;50896;46.714;17.322;2023-05-09T09:00:32;101102.88;;;14.26;65.64
64521;BME280;50896;46.714;17.322;2023-05-09T09:03:01;101108.69;;;14.30;66.26
64521;BME280;50896;46.714;17.322;2023-05-09T09:05:30;101107.34;;;14.34;66.07
64521;BME280;50896;46.714;17.322;2023-05-09T09:08:08;101096.03;;;14.24;66.93
64521;BME280;50896;46.714;17.322;2023-05-09T09:10:39;101097.47;;;14.43;65.17
64521;BME280;50896;46.714;17.322;2023-05-09T09:13:08;101096.13;;;14.47;63.40
64521;BME280;50896;46.714;17.322;2023-05-09T09:15:37;101093.97;;;14.34;64.76
64521;BME280;50896;46.714;17.322;2023-05-09T09:18:08;101089.97;;;14.38;64.53
64521;BME280;50896;46.714;17.322;2023-05-09T09:20:40;101098.16;;;14.45;64.12
64521;BME280;50896;46.714;17.322;2023-05-09T09:23:11;101096.44;;;14.60;65.46
64521;BME280;50896;46.714;17.322;2023-05-09T09:25:44;101092.88;;;14.76;60.98
64521;BME280;50896;46.714;17.322;2023-05-09T09:28:11;101085.19;;;14.73;59.70
64521;BME280;50896;46.714;17.322;2023-05-09T09:30:46;101086.91;;;14.66;56.40
64521;BME280;50896;46.714;17.322;2023-05-09T09:33:20;101090.38;;;14.75;57.15
64521;BME280;50896;46.714;17.322;2023-05-09T09:35:48;101083.66;;;14.79;54.54
64521;BME280;50896;46.714;17.322;2023-05-09T09:38:17;101087.16;;;14.88;55.22
64521;BME280;50896;46.714;17.322;2023-05-09T09:40:51;101081.94;;;14.94;55.48
64521;BME280;50896;46.714;17.322;2023-05-09T09:43:19;101095.25;;;15.11;53.86
64521;BME280;50896;46.714;17.322;2023-05-09T09:45:49;101091.13;;;15.31;56.32
64521;BME280;50896;46.714;17.322;2023-05-09T09:48:17;101104.44;;;15.08;59.40
64521;BME280;50896;46.714;17.322;2023-05-09T09:50:46;101087.69;;;15.14;59.00
64521;BME280;50896;46.714;17.322;2023-05-09T09:53:13;101090.28;;;15.31;61.81
64521;BME280;50896;46.714;17.322;2023-05-09T09:55:48;101086.41;;;15.33;62.56
64521;BME280;50896;46.714;17.322;2023-05-09T09:58:16;101086.53;;;15.40;61.21
64521;BME280;50896;46.714;17.322;2023-05-09T10:00:43;101080.72;;;15.36;61.24
64521;BME280;50896;46.714;17.322;2023-05-09T10:03:15;101085.97;;;15.21;60.36
64521;BME280;50896;46.714;17.322;2023-05-09T10:05:43;101078.31;;;15.42;58.60
64521;BME280;50896;46.714;17.322;2023-05-09T10:08:10;101080.94;;;15.50;57.36
64521;BME280;50896;46.714;17.322;2023-05-09T10:10:38;101076.53;;;15.57;58.47
64521;BME280;50896;46.714;17.322;2023-05-09T10:13:08;101075.63;;;15.65;58.14
64521;BME280;50896;46.714;17.322;2023-05-09T10:15:36;101063.78;;;15.59;57.64
64521;BME280;50896;46.714;17.322;2023-05-09T10:18:23;101060.94;;;15.61;58.05
64521;BME280;50896;46.714;17.322;2023-05-09T10:21:05;101055.44;;;15.54;58.23
64521;BME280;50896;46.714;17.322;2023-05-09T10:23:50;101047.97;;;15.49;58.39
64521;BME280;50896;46.714;17.322;2023-05-09T10:26:25;101049.13;;;15.70;58.61
64521;BME280;50896;46.714;17.322;2023-05-09T10:28:56;101030.84;;;15.73;58.08
64521;BME280;50896;46.714;17.322;2023-05-09T10:31:27;101036.75;;;15.69;59.14
64521;BME280;50896;46.714;17.322;2023-05-09T10:33:55;101036.00;;;15.75;58.75
64521;BME280;50896;46.714;17.322;2023-05-09T10:36:22;101042.22;;;15.76;58.11
64521;BME280;50896;46.714;17.322;2023-05-09T10:38:53;101035.34;;;15.81;57.76
64521;BME280;50896;46.714;17.322;2023-05-09T10:41:21;101035.44;;;15.88;58.04
64521;BME280;50896;46.714;17.322;2023-05-09T10:43:48;101038.28;;;15.86;57.37
64521;BME280;50896;46.714;17.322;2023-05-09T10:46:15;101031.09;;;15.87;56.79
64521;BME280;50896;46.714;17.322;2023-05-09T10:48:43;101034.97;;;15.84;56.14
64521;BME280;50896;46.714;17.322;2023-05-09T10:51:11;101034.34;;;15.97;58.37
64521;BME280;50896;46.714;17.322;2023-05-09T10:53:49;101029.72;;;16.21;56.46
64521;BME280;50896;46.714;17.322;2023-05-09T10:56:23;101026.84;;;16.22;56.04
64521;BME280;50896;46.714;17.322;2023-05-09T10:58:52;101021.78;;;16.43;55.17
64521;BME280;50896;46.714;17.322;2023-05-09T11:01:36;101020.31;;;16.55;56.54
64521;BME280;50896;46.714;17.322;2023-05-09T11:04:09;101017.88;;;16.60;54.91
64521;BME280;50896;46.714;17.322;2023-05-09T11:09:36;101016.09;;;16.67;55.13
64521;BME280;50896;46.714;17.322;2023-05-09T11:12:11;101007.03;;;16.68;55.88
64521;BME280;50896;46.714;17.322;2023-05-09T11:14:46;101014.16;;;16.61;56.12
64521;BME280;50896;46.714;17.322;2023-05-09T11:22:22;100998.16;;;16.53;55.62
64521;BME280;50896;46.714;17.322;2023-05-09T11:25:06;100998.81;;;16.55;56.30
64521;BME280;50896;46.714;17.322;2023-05-09T11:27:44;101000.28;;;16.57;55.43
64521;BME280;50896;46.714;17.322;2023-05-09T11:30:13;100996.38;;;16.60;56.61
64521;BME280;50896;46.714;17.322;2023-05-09T11:35:18;100992.59;;;16.54;57.57
64521;BME280;50896;46.714;17.322;2023-05-09T11:37:51;100984.13;;;16.51;55.97
64521;BME280;50896;46.714;17.322;2023-05-09T11:40:21;100976.78;;;16.45;56.28
64521;BME280;50896;46.714;17.322;2023-05-09T11:42:49;100979.56;;;16.51;56.60
64521;BME280;50896;46.714;17.322;2023-05-09T11:45:23;100958.19;;;16.43;57.20
64521;BME280;50896;46.714;17.322;2023-05-09T11:47:51;100975.78;;;16.46;56.88
64521;BME280;50896;46.714;17.322;2023-05-09T11:50:19;100966.34;;;16.50;57.22
64521;BME280;50896;46.714;17.322;2023-05-09T11:52:46;100967.44;;;16.55;55.97
64521;BME280;50896;46.714;17.322;2023-05-09T11:55:16;100961.06;;;16.56;57.35
64521;BME280;50896;46.714;17.322;2023-05-09T11:57:46;100963.34;;;16.60;58.18
64521;BME280;50896;46.714;17.322;2023-05-09T12:00:21;100962.03;;;16.70;57.60
64521;BME280;50896;46.714;17.322;2023-05-09T12:02:49;100962.41;;;16.67;57.33
64521;BME280;50896;46.714;17.322;2023-05-09T12:05:18;100956.41;;;16.65;57.04
64521;BME280;50896;46.714;17.322;2023-05-09T12:07:46;100953.75;;;16.50;58.15
64521;BME280;50896;46.714;17.322;2023-05-09T12:10:16;100950.69;;;16.53;58.57
64521;BME280;50896;46.714;17.322;2023-05-09T12:12:49;100940.13;;;16.52;58.57
64521;BME280;50896;46.714;17.322;2023-05-09T12:15:16;100955.59;;;16.50;58.85
64521;BME280;50896;46.714;17.322;2023-05-09T12:17:45;100943.59;;;16.46;57.00
64521;BME280;50896;46.714;17.322;2023-05-09T12:20:16;100945.78;;;16.57;56.13
64521;BME280;50896;46.714;17.322;2023-05-09T12:22:43;100941.97;;;16.66;57.69
64521;BME280;50896;46.714;17.322;2023-05-09T12:25:11;100938.06;;;16.69;57.16
64521;BME280;50896;46.714;17.322;2023-05-09T12:27:39;100927.16;;;16.70;56.71
64521;BME280;50896;46.714;17.322;2023-05-09T12:30:07;100917.31;;;16.78;57.56
64521;BME280;50896;46.714;17.322;2023-05-09T12:32:37;100920.53;;;16.73;57.51
64521;BME280;50896;46.714;17.322;2023-05-09T12:35:07;100908.28;;;16.85;58.97
64521;BME280;50896;46.714;17.322;2023-05-09T12:37:35;100919.13;;;17.14;56.29
64521;BME280;50896;46.714;17.322;2023-05-09T12:40:04;100914.34;;;17.37;55.30
64521;BME280;50896;46.714;17.322;2023-05-09T12:42:33;100905.59;;;17.29;55.85
64521;BME280;50896;46.714;17.322;2023-05-09T12:45:03;100900.91;;;17.37;54.58
64521;BME280;50896;46.714;17.322;2023-05-09T12:47:33;100912.50;;;17.38;56.21
64521;BME280;50896;46.714;17.322;2023-05-09T12:50:01;100897.59;;;17.35;55.97
64521;BME280;50896;46.714;17.322;2023-05-09T12:52:37;100893.59;;;17.53;56.84
64521;BME280;50896;46.714;17.322;2023-05-09T12:55:19;100890.78;;;17.39;53.59
64521;BME280;50896;46.714;17.322;2023-05-09T12:58:01;100883.06;;;17.30;52.46
64521;BME280;50896;46.714;17.322;2023-05-09T13:00:43;100882.69;;;17.33;52.31
64521;BME280;50896;46.714;17.322;2023-05-09T13:03:40;100885.50;;;17.24;53.45
64521;BME280;50896;46.714;17.322;2023-05-09T13:06:12;100875.00;;;17.30;53.41
64521;BME280;50896;46.714;17.322;2023-05-09T13:08:40;100874.75;;;17.24;54.00